Lynn, Indiana
Current Conditions -  °F | °C
As of 3:55 PM on Thursday 20 Nov 2014 (Local Time) from KVES Reporting Station
Scattered Clouds Scattered Clouds  
Wind Chill: -8°   Ceiling: Unl
Heat Index: -2°   Visibility: 10mi
Dew Point: -8°   Wind: 14mph
Humidity: 64%   Direction: 270°W
Pressure: 30.08"   Gusts: NA
Location:  40.05°N, 84.94°W
Report Text: KVES 202055Z AUTO 27012KT 10SM SCT036 M02/M08 A3008 RMK AO2
Loading
Personal Weather Stations






























Interactive Weather Map New forecast layout! Learn more

10-Day Weather Forecast

Advertisements
Track Severe Weather on mobile